TLPL/UVF METAR and TAF weather

Enter ICAO airport designator
Station Type Date Time Source
TLPL METAR 2019/12/06 14:00 UTC NOAA

TLPL 061400Z 09017KT 9999 FEW028 30/23 Q1016 NOSIG


Station Type Date Time Source
TLPL Decoded METAR 2019/12/06 14:00 UTC NOAA

Hewanorra International Airport, Saint Lucia (TLPL) 13-45N 060-57W 10M
Dec 06, 2019 - 09:00 AM EST / 2019.12.06 1400 UTC
Wind: from the E (090 degrees) at 20 MPH (17 KT):0
Visibility: greater than 7 mile(s):0
Sky conditions: mostly clear
Temperature: 86 F (30 C)
Heat index: 93.4 F (34.1 C):1
Dew Point: 73 F (23 C)
Relative Humidity: 66%
Pressure (altimeter): 30.00 in. Hg (1016 hPa)
ob: TLPL 061400Z 09017KT 9999 FEW028 30/23 Q1016 NOSIG
cycle: 14

Station Type Date Time Source
TLPL TAF 2019/12/06 12:12 UTC NOAA

TAF TLPL 061100Z 0612/0712 09018KT 9999 SCT026
TEMPO 0616/0702 SHRA BKN018KT

Example: see airport list